createdAt,value
2023-04-22T00:01:14.819Z,100715.78
2023-04-22T00:04:01.079Z,100707.13
2023-04-22T00:06:47.221Z,100710.56
2023-04-22T00:09:32.627Z,100694.97
2023-04-22T00:12:17.996Z,100701.91
2023-04-22T00:15:03.581Z,100688.88
2023-04-22T00:17:49.395Z,100694.09
2023-04-22T00:20:36.526Z,100687.13
2023-04-22T00:23:21.915Z,100683.63
2023-04-22T00:26:07.420Z,100677.56
2023-04-22T00:28:52.731Z,100678.44
2023-04-22T00:31:38.028Z,100681.03
2023-04-22T00:34:23.245Z,100665.41
2023-04-22T00:37:08.724Z,100657.59
2023-04-22T00:39:54.421Z,100659.34
2023-04-22T00:42:41.666Z,100648.94
2023-04-22T00:45:27.350Z,100648.06
2023-04-22T00:48:14.136Z,100644.59
2023-04-22T00:50:59.307Z,100650.66
2023-04-22T00:53:44.717Z,100644.59
2023-04-22T00:56:31.863Z,100643.72
2023-04-22T00:59:17.081Z,100645.44
2023-04-22T01:02:04.024Z,100645.44
2023-04-22T01:04:49.898Z,100640.28
2023-04-22T01:07:36.425Z,100639.41
2023-04-22T01:10:22.148Z,100633.34
2023-04-22T01:13:07.782Z,100624.69
2023-04-22T01:15:54.064Z,100627.28
2023-04-22T01:18:39.659Z,100614.22
2023-04-22T01:21:27.255Z,100608.16
2023-04-22T01:24:13.211Z,100598.63
2023-04-22T01:26:58.571Z,100597.75
2023-04-22T01:29:44.353Z,100590.81
2023-04-22T01:32:31.237Z,100579.53
2023-04-22T01:35:16.732Z,100575.19
2023-04-22T01:38:03.708Z,100575.19
2023-04-22T01:40:49.061Z,100570.00
2023-04-22T01:43:34.441Z,100571.72
2023-04-22T01:46:21.236Z,100576.06
2023-04-22T01:49:06.957Z,100572.59
2023-04-22T01:51:52.365Z,100580.41
2023-04-22T01:54:39.099Z,100578.66
2023-04-22T01:57:24.517Z,100565.66
2023-04-22T02:00:10.559Z,100568.25
2023-04-22T02:02:59.155Z,100569.13
2023-04-22T02:05:44.806Z,100570.00
2023-04-22T02:08:31.755Z,100564.78
2023-04-22T02:11:17.074Z,100563.94
2023-04-22T02:14:02.470Z,100560.44
2023-04-22T02:16:48.369Z,100560.44
2023-04-22T02:19:35.396Z,100552.63
2023-04-22T02:22:22.353Z,100556.09
2023-04-22T02:25:11.093Z,100554.38
2023-04-22T02:27:56.471Z,100551.78
2023-04-22T02:30:42.427Z,100549.19
2023-04-22T02:33:28.224Z,100543.97
2023-04-22T02:36:13.739Z,100542.22
2023-04-22T02:38:59.188Z,100533.56
2023-04-22T02:41:44.476Z,100537.88
2023-04-22T02:44:30.744Z,100532.69
2023-04-22T02:47:16.944Z,100530.06
2023-04-22T02:50:02.638Z,100532.69
2023-04-22T02:52:48.184Z,100530.06
2023-04-22T02:55:33.618Z,100519.66
2023-04-22T02:58:19.513Z,100526.63
2023-04-22T03:01:05.426Z,100526.63
2023-04-22T03:03:51.079Z,100520.53
2023-04-22T03:06:41.573Z,100517.88
2023-04-22T03:09:27.502Z,100514.44
2023-04-22T03:12:12.928Z,100508.38
2023-04-22T03:14:58.297Z,100504.03
2023-04-22T03:17:47.970Z,100497.09
2023-04-22T03:20:35.215Z,100491.03
2023-04-22T03:23:21.418Z,100485.81
2023-04-22T03:26:06.844Z,100481.47
2023-04-22T03:28:52.195Z,100476.28
2023-04-22T03:31:37.823Z,100473.69
2023-04-22T03:34:23.551Z,100463.28
2023-04-22T03:37:09.685Z,100465.88
2023-04-22T03:39:55.191Z,100462.41
2023-04-22T03:42:41.087Z,100456.34
2023-04-22T03:45:27.136Z,100454.63
2023-04-22T03:48:29.183Z,100451.13
2023-04-22T03:51:15.733Z,100445.06
2023-04-22T03:54:01.567Z,100436.38
2023-04-22T03:56:50.655Z,100426.84
2023-04-22T03:59:37.901Z,100431.19
2023-04-22T04:02:24.797Z,100424.28
2023-04-22T04:05:11.570Z,100413.88
2023-04-22T04:07:58.730Z,100411.28
2023-04-22T04:10:44.112Z,100408.63
2023-04-22T04:13:32.463Z,100413.84
2023-04-22T04:16:34.891Z,100412.13
2023-04-22T04:19:28.792Z,100403.47
2023-04-22T04:22:15.122Z,100404.31
2023-04-22T04:25:10.489Z,100394.78
2023-04-22T04:28:00.016Z,100399.97
2023-04-22T04:30:45.976Z,100397.38
2023-04-22T04:33:32.690Z,100388.72
2023-04-22T04:36:19.016Z,100376.59
2023-04-22T04:39:04.996Z,100369.66
2023-04-22T04:41:55.209Z,100372.25
2023-04-22T04:44:41.848Z,100361.00
2023-04-22T04:47:28.558Z,100355.78
2023-04-22T04:50:24.518Z,100343.66
2023-04-22T04:53:11.310Z,100343.66
2023-04-22T04:55:59.473Z,100340.16
2023-04-22T04:58:46.452Z,100336.72
2023-04-22T05:01:43.989Z,100337.56
2023-04-22T05:04:31.542Z,100339.31
2023-04-22T05:07:17.307Z,100329.78
2023-04-22T05:10:04.472Z,100332.38
2023-04-22T05:12:51.697Z,100328.88
2023-04-22T05:15:41.344Z,100333.22
2023-04-22T05:18:26.936Z,100340.16
2023-04-22T05:21:13.106Z,100330.63
2023-04-22T05:23:59.297Z,100331.47
2023-04-22T05:26:44.822Z,100317.63
2023-04-22T05:29:35.699Z,100313.31
2023-04-22T05:32:22.701Z,100321.97
2023-04-22T05:35:09.353Z,100316.78
2023-04-22T05:37:55.812Z,100316.78
2023-04-22T05:40:41.489Z,100311.59
2023-04-22T05:43:29.167Z,100317.63
2023-04-22T05:46:21.372Z,100311.59
2023-04-22T05:49:07.188Z,100316.78
2023-04-22T05:52:11.426Z,100313.31
2023-04-22T05:55:14.903Z,100310.72
2023-04-22T05:58:00.244Z,100315.06
2023-04-22T06:00:58.805Z,100315.06
2023-04-22T06:03:59.846Z,100316.81
2023-04-22T06:06:45.357Z,100309.00
2023-04-22T06:09:32.169Z,100309.84
2023-04-22T06:12:18.793Z,100311.59
2023-04-22T06:15:05.316Z,100305.53
2023-04-22T06:17:51.013Z,100313.34
2023-04-22T06:20:36.982Z,100306.41
2023-04-22T06:23:22.574Z,100300.34
2023-04-22T06:26:08.054Z,100302.94
2023-04-22T06:28:55.268Z,100297.75
2023-04-22T06:31:40.804Z,100288.22
2023-04-22T06:34:26.629Z,100289.91
2023-04-22T06:37:12.072Z,100284.75
2023-04-22T06:39:57.843Z,100286.47
2023-04-22T06:43:03.388Z,100268.25
2023-04-22T06:46:08.076Z,100270.88
2023-04-22T06:49:13.811Z,100268.28
2023-04-22T06:52:11.902Z,100270.88
2023-04-22T06:54:57.851Z,100262.19
2023-04-22T06:57:43.185Z,100262.16
2023-04-22T07:00:29.205Z,100257.81
2023-04-22T07:03:16.774Z,100257.78
2023-04-22T07:06:02.533Z,100247.34
2023-04-22T07:08:49.490Z,100242.97
2023-04-22T07:11:34.946Z,100243.78
2023-04-22T07:14:26.859Z,100226.41
2023-04-22T07:17:12.567Z,100235.03
2023-04-22T07:19:58.069Z,100227.22
2023-04-22T07:22:43.294Z,100228.94
2023-04-22T07:25:28.731Z,100230.69
2023-04-22T07:28:14.339Z,100223.78
2023-04-22T07:30:59.634Z,100223.81
2023-04-22T07:33:45.007Z,100219.59
2023-04-22T07:36:32.138Z,100223.16
2023-04-22T07:39:18.079Z,100223.19
2023-04-22T07:42:03.970Z,100217.13
2023-04-22T07:44:49.503Z,100218.88
2023-04-22T07:47:35.002Z,100214.53
2023-04-22T07:50:20.216Z,100218.88
2023-04-22T07:53:06.067Z,100213.69
2023-04-22T07:55:51.735Z,100211.09
2023-04-22T07:58:37.151Z,100214.56
2023-04-22T08:01:22.525Z,100210.22
2023-04-22T08:04:08.290Z,100218.88
2023-04-22T08:06:54.959Z,100215.41
2023-04-22T08:09:40.733Z,100209.38
2023-04-22T08:12:26.320Z,100213.69
2023-04-22T08:15:12.543Z,100220.63
2023-04-22T08:17:58.158Z,100219.78
2023-04-22T08:20:43.858Z,100222.38
2023-04-22T08:23:29.362Z,100227.56
2023-04-22T08:26:16.383Z,100218.88
2023-04-22T08:29:01.606Z,100222.38
2023-04-22T08:31:47.181Z,100211.97
2023-04-22T08:34:32.636Z,100211.97
2023-04-22T08:37:18.260Z,100213.69
2023-04-22T08:40:04.974Z,100201.56
2023-04-22T08:42:52.333Z,100195.53
2023-04-22T08:45:39.785Z,100195.53
2023-04-22T08:48:26.661Z,100201.56
2023-04-22T08:51:12.435Z,100203.31
2023-04-22T08:53:58.202Z,100202.47
2023-04-22T08:56:45.560Z,100199.84
2023-04-22T08:59:31.764Z,100198.13
2023-04-22T09:02:20.664Z,100198.13
2023-04-22T09:05:09.166Z,100198.13
2023-04-22T09:07:55.389Z,100196.38
2023-04-22T09:10:41.533Z,100194.66
2023-04-22T09:13:27.688Z,100194.66
2023-04-22T09:16:13.283Z,100197.25
2023-04-22T09:18:59.090Z,100194.66
2023-04-22T09:21:45.836Z,100195.50
2023-04-22T09:24:32.695Z,100190.31
2023-04-22T09:27:23.824Z,100181.69
2023-04-22T09:30:10.188Z,100178.22
2023-04-22T09:32:57.642Z,100182.56
2023-04-22T09:35:43.842Z,100173.88
2023-04-22T09:38:32.170Z,100172.16
2023-04-22T09:41:17.550Z,100170.41
2023-04-22T09:44:04.983Z,100180.78
2023-04-22T09:46:51.356Z,100175.59
2023-04-22T09:49:39.074Z,100173.88
2023-04-22T09:52:27.146Z,100173.00
2023-04-22T09:55:12.877Z,100181.66
2023-04-22T09:57:58.879Z,100173.00
2023-04-22T10:00:48.766Z,100176.44
2023-04-22T10:03:34.294Z,100172.97
2023-04-22T10:06:20.472Z,100168.66
2023-04-22T10:09:09.300Z,100163.44
2023-04-22T10:11:58.743Z,100162.56
2023-04-22T10:14:44.418Z,100153.88
2023-04-22T10:17:33.413Z,100159.09
2023-04-22T10:20:20.091Z,100155.59
2023-04-22T10:23:07.037Z,100160.78
2023-04-22T10:25:56.763Z,100157.31
2023-04-22T10:28:44.314Z,100152.09
2023-04-22T10:31:29.704Z,100145.97
2023-04-22T10:34:15.722Z,100145.94
2023-04-22T10:37:06.540Z,100140.72
2023-04-22T10:40:08.998Z,100130.25
2023-04-22T10:43:03.467Z,100138.00
2023-04-22T10:45:48.902Z,100126.72
2023-04-22T10:48:50.756Z,100118.00
2023-04-22T10:51:39.249Z,100123.19
2023-04-22T10:54:37.008Z,100129.19
2023-04-22T10:57:22.879Z,100123.91
2023-04-22T11:00:20.426Z,100131.63
2023-04-22T11:03:05.869Z,100121.22
2023-04-22T11:06:16.139Z,100116.91
2023-04-22T11:09:16.956Z,100128.19
2023-04-22T11:12:39.440Z,100123.16
2023-04-22T11:15:25.157Z,100111.25
2023-04-22T11:18:14.596Z,100104.44
2023-04-22T11:21:07.359Z,100105.38
2023-04-22T11:23:53.655Z,100119.28
2023-04-22T11:26:41.053Z,100115.00
2023-04-22T11:29:26.821Z,100124.53
2023-04-22T11:32:12.187Z,100123.66
2023-04-22T11:34:58.200Z,100128.00
2023-04-22T11:37:45.276Z,100125.41
2023-04-22T11:40:35.165Z,100128.00
2023-04-22T11:43:22.299Z,100132.31
2023-04-22T11:46:08.822Z,100129.72
2023-04-22T11:48:54.664Z,100130.56
2023-04-22T11:52:00.193Z,100137.50
2023-04-22T11:54:46.306Z,100140.09
2023-04-22T11:57:36.465Z,100143.56
2023-04-22T12:00:23.139Z,100137.50
2023-04-22T12:03:18.064Z,100144.44
2023-04-22T12:06:05.262Z,100140.09
2023-04-22T12:08:50.551Z,100141.84
2023-04-22T12:11:36.079Z,100152.22
2023-04-22T12:14:21.648Z,100142.69
2023-04-22T12:17:10.695Z,100145.28
2023-04-22T12:19:56.226Z,100144.44
2023-04-22T12:22:41.813Z,100138.38
2023-04-22T12:25:27.628Z,100135.75
2023-04-22T12:28:13.160Z,100140.09
2023-04-22T12:30:58.878Z,100137.50
2023-04-22T12:33:45.885Z,100137.50
2023-04-22T12:36:32.578Z,100141.84
2023-04-22T12:39:19.029Z,100142.69
2023-04-22T12:42:05.970Z,100135.75
2023-04-22T12:44:51.579Z,100141.84
2023-04-22T12:47:37.174Z,100139.25
2023-04-22T12:50:22.729Z,100132.31
2023-04-22T12:53:08.586Z,100134.03
2023-04-22T12:55:55.051Z,100134.94
2023-04-22T12:58:40.324Z,100133.19
2023-04-22T13:01:26.064Z,100141.00
2023-04-22T13:04:11.637Z,100139.22
2023-04-22T13:06:57.428Z,100129.72
2023-04-22T13:09:43.367Z,100129.72
2023-04-22T13:12:28.775Z,100128.00
2023-04-22T13:15:14.518Z,100130.56
2023-04-22T13:18:00.584Z,100122.75
2023-04-22T13:20:46.369Z,100128.81
2023-04-22T13:23:32.698Z,100121.00
2023-04-22T13:26:18.945Z,100119.25
2023-04-22T13:29:11.034Z,100118.38
2023-04-22T13:31:56.452Z,100120.09
2023-04-22T13:34:42.084Z,100108.88
2023-04-22T13:37:27.464Z,100106.28
2023-04-22T13:40:13.107Z,100107.16
2023-04-22T13:42:58.788Z,100103.72
2023-04-22T13:45:44.109Z,100102.00
2023-04-22T13:48:30.151Z,100102.00
2023-04-22T13:51:16.069Z,100095.91
2023-04-22T13:54:01.614Z,100099.38
2023-04-22T13:56:46.944Z,100102.00
2023-04-22T13:59:32.182Z,100103.72
2023-04-22T14:02:18.125Z,100098.53
2023-04-22T14:05:04.227Z,100102.84
2023-04-22T14:07:49.666Z,100101.97
2023-04-22T14:10:35.417Z,100099.38
2023-04-22T14:13:21.410Z,100095.94
2023-04-22T14:16:12.000Z,100089.84
2023-04-22T14:18:58.452Z,100097.66
2023-04-22T14:21:43.822Z,100091.56
2023-04-22T14:24:29.160Z,100092.41
2023-04-22T14:27:14.959Z,100095.00
2023-04-22T14:30:02.011Z,100077.72
2023-04-22T14:32:47.705Z,100064.75
2023-04-22T14:35:34.874Z,100063.88
2023-04-22T14:38:21.528Z,100062.16
2023-04-22T14:41:07.245Z,100073.38
2023-04-22T14:43:52.722Z,100071.66
2023-04-22T14:46:38.001Z,100075.09
2023-04-22T14:49:23.440Z,100075.09
2023-04-22T14:52:09.083Z,100083.72
2023-04-22T14:54:54.579Z,100079.38
2023-04-22T14:57:40.086Z,100063.84
2023-04-22T15:00:26.830Z,100066.47
2023-04-22T15:03:12.742Z,100068.19
2023-04-22T15:05:58.992Z,100064.69
2023-04-22T15:08:44.593Z,100075.91
2023-04-22T15:11:30.507Z,100063.75
2023-04-22T15:14:17.166Z,100051.63
2023-04-22T15:17:05.501Z,100054.22
2023-04-22T15:19:53.322Z,100050.75
2023-04-22T15:22:42.410Z,100059.41
2023-04-22T15:25:28.160Z,100051.59
2023-04-22T15:28:14.301Z,100055.91
2023-04-22T15:30:59.746Z,100066.31
2023-04-22T15:33:45.111Z,100061.97
2023-04-22T15:36:31.620Z,100048.13
2023-04-22T15:39:17.164Z,100050.78
2023-04-22T15:42:02.924Z,100055.09
2023-04-22T15:44:48.297Z,100061.19
2023-04-22T15:47:34.102Z,100054.22
2023-04-22T15:50:23.342Z,100051.59
2023-04-22T15:53:09.292Z,100055.91
2023-04-22T15:55:54.574Z,100042.84
2023-04-22T15:58:40.129Z,100045.28
2023-04-22T16:01:25.543Z,100039.94
2023-04-22T16:04:11.205Z,100034.41
2023-04-22T16:06:57.523Z,100035.66
2023-04-22T16:09:43.477Z,100037.56
2023-04-22T16:12:29.256Z,100019.44
2023-04-22T16:15:16.605Z,100001.88
2023-04-22T16:18:03.171Z,100001.81
2023-04-22T16:20:49.172Z,100001.94
2023-04-22T16:23:34.862Z,100000.66
2023-04-22T16:26:20.846Z,99995.84
2023-04-22T16:29:06.332Z,99993.22
2023-04-22T16:31:52.154Z,99988.63
2023-04-22T16:34:38.345Z,99985.97
2023-04-22T16:37:25.270Z,99980.81
2023-04-22T16:40:10.818Z,99975.66
2023-04-22T16:42:57.233Z,99973.13
2023-04-22T16:45:42.511Z,99979.63
2023-04-22T16:48:27.810Z,99973.88
2023-04-22T16:51:13.155Z,99975.97
2023-04-22T16:53:58.438Z,99983.94
2023-04-22T16:56:43.804Z,99986.75
2023-04-22T16:59:29.972Z,99983.34
2023-04-22T17:02:15.498Z,99986.00
2023-04-22T17:05:02.614Z,99982.78
2023-04-22T17:07:47.973Z,99993.28
2023-04-22T17:10:34.800Z,99983.75
2023-04-22T17:13:20.187Z,99981.22
2023-04-22T17:16:05.785Z,99976.88
2023-04-22T17:18:51.307Z,99985.78
2023-04-22T17:21:37.405Z,99978.06
2023-04-22T17:24:24.271Z,99969.50
2023-04-22T17:27:14.759Z,99970.47
2023-04-22T17:30:00.339Z,99973.97
2023-04-22T17:32:45.800Z,99969.63
2023-04-22T17:35:31.224Z,99974.94
2023-04-22T17:38:16.982Z,99972.41
2023-04-22T17:41:02.678Z,99988.03
2023-04-22T17:43:47.969Z,99992.44
2023-04-22T17:46:33.336Z,99992.50
2023-04-22T17:49:18.842Z,100001.19
2023-04-22T17:52:04.246Z,99998.63
2023-04-22T17:54:50.402Z,100003.00
2023-04-22T17:57:36.628Z,100001.28
2023-04-22T18:00:22.201Z,100000.47
2023-04-22T18:03:07.912Z,99995.31
2023-04-22T18:05:53.582Z,100001.41
2023-04-22T18:08:38.928Z,100001.41
2023-04-22T18:11:24.497Z,99992.81
2023-04-22T18:14:10.718Z,99999.78
2023-04-22T18:16:56.730Z,99998.94
2023-04-22T18:19:44.110Z,100004.16
2023-04-22T18:22:29.565Z,100005.91
2023-04-22T18:25:15.564Z,100004.19
2023-04-22T18:28:01.071Z,100005.94
2023-04-22T18:30:46.974Z,100005.94
2023-04-22T18:33:32.894Z,99999.06
2023-04-22T18:36:18.675Z,100008.53
2023-04-22T18:39:05.821Z,100000.78
2023-04-22T18:41:52.012Z,100002.50
2023-04-22T18:44:37.766Z,99993.84
2023-04-22T18:47:23.440Z,100002.50
2023-04-22T18:50:09.967Z,99995.56
2023-04-22T18:52:55.202Z,99994.72
2023-04-22T18:55:40.628Z,99992.13
2023-04-22T18:58:27.009Z,99991.25
2023-04-22T19:01:12.811Z,100000.78
2023-04-22T19:04:01.712Z,100007.69
2023-04-22T19:06:48.098Z,99997.31
2023-04-22T19:09:33.436Z,100005.13
2023-04-22T19:12:19.728Z,100000.78
2023-04-22T19:15:06.260Z,100002.56
2023-04-22T19:17:51.757Z,100006.84
2023-04-22T19:20:37.512Z,100008.63
2023-04-22T19:23:23.068Z,100009.47
2023-04-22T19:26:11.621Z,100001.69
2023-04-22T19:28:57.254Z,100003.41
2023-04-22T19:31:46.352Z,100002.56
2023-04-22T19:34:32.268Z,100012.94
2023-04-22T19:37:18.625Z,100009.47
2023-04-22T19:40:04.652Z,100012.94
2023-04-22T19:42:50.351Z,100012.94
2023-04-22T19:45:35.503Z,100013.78
2023-04-22T19:48:21.464Z,100015.53
2023-04-22T19:51:07.035Z,100012.91
2023-04-22T19:53:54.457Z,100016.41
2023-04-22T19:56:41.514Z,100011.22
2023-04-22T19:59:31.205Z,100018.09
2023-04-22T20:02:16.649Z,100009.47
2023-04-22T20:05:05.663Z,100015.53
2023-04-22T20:07:51.953Z,100012.94
2023-04-22T20:10:38.309Z,100013.78
2023-04-22T20:13:23.957Z,100012.94
2023-04-22T20:16:10.712Z,100005.13
2023-04-22T20:18:56.685Z,100006.84
2023-04-22T20:21:43.551Z,100006.00
2023-04-22T20:24:32.519Z,100000.81
2023-04-22T20:27:18.821Z,100007.72
2023-04-22T20:30:05.742Z,100006.00
2023-04-22T20:32:51.677Z,100001.66
2023-04-22T20:35:38.700Z,100003.41
2023-04-22T20:38:25.326Z,100004.25
2023-04-22T20:41:13.379Z,100010.31
2023-04-22T20:43:58.703Z,100011.16
2023-04-22T20:46:44.536Z,100002.53
2023-04-22T20:49:29.960Z,100002.53
2023-04-22T20:52:15.501Z,100000.78
2023-04-22T20:55:01.325Z,100001.63
2023-04-22T20:57:46.924Z,100011.97
2023-04-22T21:00:32.796Z,100000.72
2023-04-22T21:03:19.048Z,100001.59
2023-04-22T21:06:05.717Z,99998.13
2023-04-22T21:08:51.445Z,100005.00
2023-04-22T21:11:37.206Z,100006.75
2023-04-22T21:14:26.202Z,99999.81
2023-04-22T21:17:25.281Z,99995.50
2023-04-22T21:20:11.572Z,99997.22
2023-04-22T21:22:58.060Z,99989.41
2023-04-22T21:25:44.277Z,99988.53
2023-04-22T21:28:30.393Z,99998.91
2023-04-22T21:31:16.600Z,99988.53
2023-04-22T21:34:04.677Z,99983.31
2023-04-22T21:36:50.145Z,99979.84
2023-04-22T21:39:36.405Z,99982.44
2023-04-22T21:42:22.058Z,99984.16
2023-04-22T21:45:08.011Z,99981.56
2023-04-22T21:47:54.016Z,99979.00
2023-04-22T21:50:39.504Z,99977.25
2023-04-22T21:53:25.016Z,99977.28
2023-04-22T21:56:11.161Z,99974.66
2023-04-22T21:58:56.647Z,99976.44
2023-04-22T22:01:42.454Z,99972.09
2023-04-22T22:04:28.055Z,99977.28
2023-04-22T22:07:14.812Z,99978.19
2023-04-22T22:10:00.992Z,99979.03
2023-04-22T22:12:47.523Z,99978.19
2023-04-22T22:15:32.789Z,99980.78
2023-04-22T22:18:18.366Z,99985.13
2023-04-22T22:21:04.057Z,99982.53
2023-04-22T22:23:49.891Z,99985.97
2023-04-22T22:26:36.591Z,99974.75
2023-04-22T22:29:21.938Z,99973.03
2023-04-22T22:32:07.852Z,99974.75
2023-04-22T22:34:53.591Z,99977.34
2023-04-22T22:37:38.999Z,99986.03
2023-04-22T22:40:24.476Z,99982.53
2023-04-22T22:43:09.942Z,99981.69
2023-04-22T22:45:55.835Z,99979.09
2023-04-22T22:48:41.360Z,99987.72
2023-04-22T22:51:29.931Z,99979.09
2023-04-22T22:54:15.679Z,99980.84
2023-04-22T22:57:01.757Z,99989.47
2023-04-22T22:59:47.141Z,99987.72
2023-04-22T23:02:32.760Z,99977.34
2023-04-22T23:05:18.657Z,99988.56
2023-04-22T23:08:04.445Z,99985.97
2023-04-22T23:10:50.596Z,99985.13
2023-04-22T23:13:36.072Z,99984.22
2023-04-22T23:16:21.648Z,99980.78
2023-04-22T23:19:07.545Z,99977.28
2023-04-22T23:21:54.917Z,99971.25
2023-04-22T23:24:40.805Z,99969.47
2023-04-22T23:27:26.602Z,99971.22
2023-04-22T23:30:12.832Z,99968.56
2023-04-22T23:33:02.539Z,99963.38
2023-04-22T23:35:47.863Z,99954.75
2023-04-22T23:38:33.738Z,99960.78
2023-04-22T23:41:19.867Z,99967.63
2023-04-22T23:44:05.430Z,99962.47
2023-04-22T23:46:51.006Z,99959.88
2023-04-22T23:49:36.737Z,99959.00
2023-04-22T23:52:22.987Z,99959.84
2023-04-22T23:55:13.979Z,99967.59
2023-04-22T23:57:59.380Z,99954.66
